Time;durP1;ratioP1;P1;durP2;ratioP2;P2;SDS_P1;SDS_P2;PMS_P1;PMS_P2;Temp;Humidity;BMP_temperature;BMP_pressure;BME280_temperature;BME280_humidity;BME280_pressure;Samples;Min_cycle;Max_cycle;Signal;HPM_P1;HPM_P2
2022/07/10 00:00:09;;;;;;;;;;;;;;;22.32;100.00;98335.41;5119324;28;19924;-61
2022/07/10 00:02:35;;;;;;;;;;;;;;;22.24;100.00;98331.63;5121666;28;20279;-61
2022/07/10 00:05:02;;;;;;;;;;;;;;;22.22;100.00;98333.88;5121419;28;19920;-60
2022/07/10 00:07:28;;;;;;;;;;;;;;;22.24;100.00;98339.00;5117997;28;19920;-60
2022/07/10 00:09:55;;;;;;;;;;;;;;;22.16;100.00;98328.97;5118659;28;19924;-60
2022/07/10 00:12:21;;;;;;;;;;;;;;;22.13;100.00;98341.28;5121888;28;20663;-59
2022/07/10 00:14:49;;;;;;;;;;;;;;;22.21;100.00;98337.75;5120495;28;19924;-60
2022/07/10 00:17:15;;;;;;;;;;;;;;;22.20;100.00;98333.41;5123451;28;19956;-60
2022/07/10 00:19:42;;;;;;;;;;;;;;;22.21;100.00;98332.28;5121977;28;19946;-61
2022/07/10 00:22:08;;;;;;;;;;;;;;;22.26;100.00;98334.81;5123165;28;20216;-60
2022/07/10 00:24:34;;;;;;;;;;;;;;;22.32;100.00;98332.69;5125590;28;19947;-61
2022/07/10 00:27:01;;;;;;;;;;;;;;;22.30;100.00;98332.25;5125136;28;19927;-61
2022/07/10 00:29:27;;;;;;;;;;;;;;;22.25;100.00;98316.88;5121614;28;19988;-61
2022/07/10 00:31:55;;;;;;;;;;;;;;;22.28;100.00;98318.94;5121513;28;19920;-62
2022/07/10 00:34:21;;;;;;;;;;;;;;;22.24;100.00;98319.94;5124694;28;19946;-60
2022/07/10 00:36:48;;;;;;;;;;;;;;;22.23;100.00;98337.41;5124926;28;19927;-60
2022/07/10 00:39:14;;;;;;;;;;;;;;;22.13;100.00;98319.53;5122894;28;19945;-60
2022/07/10 00:41:41;;;;;;;;;;;;;;;22.11;100.00;98338.09;5123081;27;19928;-60
2022/07/10 00:44:07;;;;;;;;;;;;;;;22.17;100.00;98330.53;5127413;27;19931;-61
2022/07/10 00:46:35;;;;;;;;;;;;;;;22.20;100.00;98336.13;5125049;28;19966;-61
2022/07/10 00:49:02;;;;;;;;;;;;;;;22.23;100.00;98335.47;5124680;28;19975;-60
2022/07/10 00:51:29;;;;;;;;;;;;;;;22.15;100.00;98332.81;5121412;28;20015;-60
2022/07/10 00:53:56;;;;;;;;;;;;;;;22.13;100.00;98324.97;5121383;28;19991;-61
2022/07/10 00:56:23;;;;;;;;;;;;;;;22.15;100.00;98324.66;5106648;28;19924;-61
2022/07/10 00:58:50;;;;;;;;;;;;;;;22.11;100.00;98321.78;5124845;28;19953;-60
2022/07/10 01:01:17;;;;;;;;;;;;;;;22.08;100.00;98327.06;5122240;28;19924;-61
2022/07/10 01:03:45;;;;;;;;;;;;;;;22.06;100.00;98319.25;5121220;28;19930;-61
2022/07/10 01:06:14;;;;;;;;;;;;;;;22.02;100.00;98312.88;5122853;28;19931;-61
2022/07/10 01:08:40;;;;;;;;;;;;;;;22.07;100.00;98312.66;5124686;28;19954;-61
2022/07/10 01:11:09;;;;;;;;;;;;;;;22.05;100.00;98302.13;5122488;28;21598;-59
2022/07/10 01:13:35;;;;;;;;;;;;;;;21.97;100.00;98307.63;5094605;28;19956;-61
2022/07/10 01:16:01;;;;;;;;;;;;;;;21.88;100.00;98304.91;5121360;28;19920;-60
2022/07/10 01:18:28;;;;;;;;;;;;;;;21.96;100.00;98306.00;5124611;28;19955;-60
2022/07/10 01:20:56;;;;;;;;;;;;;;;21.96;100.00;98314.19;5123998;28;19976;-61
2022/07/10 01:23:22;;;;;;;;;;;;;;;21.97;100.00;98304.91;5121379;28;19974;-60
2022/07/10 01:25:49;;;;;;;;;;;;;;;22.01;100.00;98305.81;5120884;28;19935;-61
2022/07/10 01:28:16;;;;;;;;;;;;;;;22.00;100.00;98310.47;5123163;28;20050;-59
2022/07/10 01:30:43;;;;;;;;;;;;;;;21.99;100.00;98314.31;5124181;28;20381;-61
2022/07/10 01:33:09;;;;;;;;;;;;;;;21.98;100.00;98307.28;5122911;28;19959;-60
2022/07/10 01:35:35;;;;;;;;;;;;;;;21.91;100.00;98312.41;5120745;28;19924;-60
2022/07/10 01:38:03;;;;;;;;;;;;;;;21.97;100.00;98307.63;5121065;28;19987;-60
2022/07/10 01:40:30;;;;;;;;;;;;;;;21.96;100.00;98311.47;5124203;28;19963;-60
2022/07/10 01:42:56;;;;;;;;;;;;;;;21.87;100.00;98318.81;5130929;27;19975;-60
2022/07/10 01:45:22;;;;;;;;;;;;;;;21.79;100.00;98314.19;5120693;28;19949;-60
2022/07/10 01:47:49;;;;;;;;;;;;;;;21.73;100.00;98318.22;5120572;28;19935;-60
2022/07/10 01:50:15;;;;;;;;;;;;;;;21.82;100.00;98325.22;5122572;28;19988;-60
2022/07/10 01:52:41;;;;;;;;;;;;;;;21.84;100.00;98316.75;5123804;28;19935;-61
2022/07/10 01:55:10;;;;;;;;;;;;;;;21.87;100.00;98310.66;5122657;28;19947;-60
2022/07/10 01:57:36;;;;;;;;;;;;;;;21.81;100.00;98307.34;5120208;28;19931;-61
2022/07/10 02:00:03;;;;;;;;;;;;;;;21.76;100.00;98307.50;5120578;28;19984;-60
2022/07/10 02:02:30;;;;;;;;;;;;;;;21.81;100.00;98301.09;5123730;28;19996;-60
2022/07/10 02:04:55;;;;;;;;;;;;;;;21.77;100.00;98308.31;5123917;28;19931;-60
2022/07/10 02:07:25;;;;;;;;;;;;;;;21.76;100.00;98306.69;5120506;28;19928;-60
2022/07/10 02:09:51;;;;;;;;;;;;;;;21.79;100.00;98306.84;5119948;28;19982;-60
2022/07/10 02:12:20;;;;;;;;;;;;;;;21.74;100.00;98295.34;5120035;28;20017;-60
2022/07/10 02:14:46;;;;;;;;;;;;;;;21.74;100.00;98295.34;5118176;28;19946;-60
2022/07/10 02:17:12;;;;;;;;;;;;;;;21.68;100.00;98302.09;5121519;28;19975;-60
2022/07/10 02:19:39;;;;;;;;;;;;;;;21.74;100.00;98295.34;5119881;28;20021;-60
2022/07/10 02:22:05;;;;;;;;;;;;;;;21.73;100.00;98308.16;5120706;28;19955;-60
2022/07/10 02:24:32;;;;;;;;;;;;;;;21.62;100.00;98308.84;5123165;28;19987;-60
2022/07/10 02:26:58;;;;;;;;;;;;;;;21.69;100.00;98309.16;5123131;28;19927;-60
2022/07/10 02:29:26;;;;;;;;;;;;;;;21.67;100.00;98319.53;5119764;28;19920;-60
2022/07/10 02:31:52;;;;;;;;;;;;;;;21.68;100.00;98315.69;5119178;28;19928;-60
2022/07/10 02:34:19;;;;;;;;;;;;;;;21.62;100.00;98311.56;5121764;28;19951;-60
2022/07/10 02:36:45;;;;;;;;;;;;;;;21.62;100.00;98315.06;5123123;28;19930;-60
2022/07/10 02:39:11;;;;;;;;;;;;;;;21.65;100.00;98311.72;5121371;28;19927;-60
2022/07/10 02:41:38;;;;;;;;;;;;;;;21.56;100.00;98315.56;5120246;28;19951;-59
2022/07/10 02:44:04;;;;;;;;;;;;;;;21.56;100.00;98316.38;5126089;27;19992;-60
2022/07/10 02:46:32;;;;;;;;;;;;;;;21.62;100.00;98317.78;5123143;28;19951;-60
2022/07/10 02:48:58;;;;;;;;;;;;;;;21.57;100.00;98311.75;5122914;28;19923;-60
2022/07/10 02:51:25;;;;;;;;;;;;;;;21.59;100.00;98304.84;5111024;28;19978;-60
2022/07/10 02:53:51;;;;;;;;;;;;;;;21.60;100.00;98302.94;5110757;28;19934;-60
2022/07/10 02:56:17;;;;;;;;;;;;;;;21.56;100.00;98302.78;5110794;28;19920;-61
2022/07/10 02:58:44;;;;;;;;;;;;;;;21.57;100.00;98301.66;5110730;28;19928;-60
2022/07/10 03:01:10;;;;;;;;;;;;;;;21.58;100.00;98308.69;5110505;28;19924;-61
2022/07/10 03:03:38;;;;;;;;;;;;;;;21.52;100.00;98316.22;5110486;28;19920;-60
2022/07/10 03:06:04;;;;;;;;;;;;;;;21.43;100.00;98317.38;5110475;28;19959;-60
2022/07/10 03:08:30;;;;;;;;;;;;;;;21.36;100.00;98328.72;5110453;28;19947;-60
2022/07/10 03:10:57;;;;;;;;;;;;;;;21.40;100.00;98334.31;5110383;28;19970;-60
2022/07/10 03:13:23;;;;;;;;;;;;;;;21.41;100.00;98320.41;5110270;28;19992;-60
2022/07/10 03:15:49;;;;;;;;;;;;;;;21.37;100.00;98315.94;5118757;28;19954;-60
2022/07/10 03:18:16;;;;;;;;;;;;;;;21.30;100.00;98319.16;5121064;28;19962;-61
2022/07/10 03:20:44;;;;;;;;;;;;;;;21.35;100.00;98315.47;5122215;28;19927;-60
2022/07/10 03:23:10;;;;;;;;;;;;;;;21.15;100.00;98324.28;5120748;28;19920;-60
2022/07/10 03:25:36;;;;;;;;;;;;;;;20.90;100.00;98326.69;5118562;28;19965;-61
2022/07/10 03:28:03;;;;;;;;;;;;;;;20.95;100.00;98328.44;5119089;28;19924;-59
2022/07/10 03:30:29;;;;;;;;;;;;;;;21.02;100.00;98323.31;5122184;28;19931;-60
2022/07/10 03:32:56;;;;;;;;;;;;;;;21.02;100.00;98324.09;5122109;28;19991;-62
2022/07/10 03:35:22;;;;;;;;;;;;;;;20.76;100.00;98325.25;5118932;28;19928;-61
2022/07/10 03:37:50;;;;;;;;;;;;;;;19.92;100.00;98329.03;5118389;28;19967;-61
2022/07/10 03:40:16;;;;;;;;;;;;;;;19.61;100.00;98324.72;5120771;28;19920;-60
2022/07/10 03:42:42;;;;;;;;;;;;;;;20.03;100.00;98329.53;5128724;27;19963;-61
2022/07/10 03:45:09;;;;;;;;;;;;;;;20.27;100.00;98331.88;5123698;28;19956;-61
2022/07/10 03:47:36;;;;;;;;;;;;;;;20.61;100.00;98323.00;5122701;28;19973;-60
2022/07/10 03:50:02;;;;;;;;;;;;;;;20.41;100.00;98327.91;5122722;28;19931;-61
2022/07/10 03:52:28;;;;;;;;;;;;;;;20.33;100.00;98327.91;5126056;28;19951;-60
2022/07/10 03:54:56;;;;;;;;;;;;;;;20.46;100.00;98332.38;5125927;28;19931;-61
2022/07/10 04:00:07;;;;;;;;;;;;;;;20.41;100.00;98337.97;5123340;28;19975;-59
2022/07/10 04:02:34;;;;;;;;;;;;;;;20.11;100.00;98345.03;5125951;28;19956;-59
2022/07/10 04:05:00;;;;;;;;;;;;;;;20.43;100.00;98339.25;5107893;28;19920;-59
2022/07/10 04:07:26;;;;;;;;;;;;;;;20.51;100.00;98339.56;5122432;28;19924;-60
2022/07/10 04:09:53;;;;;;;;;;;;;;;20.61;100.00;98334.63;5122419;28;19935;-60
2022/07/10 04:12:20;;;;;;;;;;;;;;;20.64;100.00;98339.41;5121979;28;19928;-59
2022/07/10 04:14:48;;;;;;;;;;;;;;;20.21;100.00;98331.16;5095660;28;19927;-60
2022/07/10 04:17:14;;;;;;;;;;;;;;;20.33;100.00;98336.81;5123987;28;19924;-60
2022/07/10 04:19:40;;;;;;;;;;;;;;;20.60;100.00;98334.97;5125638;28;19923;-60
2022/07/10 04:22:07;;;;;;;;;;;;;;;20.69;100.00;98327.63;5124500;28;19962;-61
2022/07/10 04:24:33;;;;;;;;;;;;;;;20.35;100.00;98329.19;5122018;28;19924;-62
2022/07/10 04:26:59;;;;;;;;;;;;;;;20.36;100.00;98322.63;5122065;28;19972;-60
2022/07/10 04:29:27;;;;;;;;;;;;;;;20.44;100.00;98321.06;5113611;28;19924;-60
2022/07/10 04:31:54;;;;;;;;;;;;;;;20.44;100.00;98324.56;5113360;28;19924;-60
2022/07/10 04:34:20;;;;;;;;;;;;;;;20.54;100.00;98319.94;5113319;28;19938;-61
2022/07/10 04:36:47;;;;;;;;;;;;;;;20.52;100.00;98325.69;5113235;28;20007;-61
2022/07/10 04:39:13;;;;;;;;;;;;;;;20.21;100.00;98330.41;5113227;28;19924;-61
2022/07/10 04:41:40;;;;;;;;;;;;;;;19.58;100.00;98330.78;5114451;27;19987;-60
2022/07/10 04:44:06;;;;;;;;;;;;;;;19.92;100.00;98330.94;5127754;27;19928;-60
2022/07/10 04:46:34;;;;;;;;;;;;;;;19.69;100.00;98335.59;5125001;28;19931;-61
2022/07/10 04:49:00;;;;;;;;;;;;;;;19.79;100.00;98329.91;5125019;28;19930;-62
2022/07/10 04:51:26;;;;;;;;;;;;;;;20.17;100.00;98335.66;5121522;28;19924;-60
2022/07/10 04:53:53;;;;;;;;;;;;;;;20.01;100.00;98333.66;5121315;28;20379;-61
2022/07/10 04:56:19;;;;;;;;;;;;;;;20.09;100.00;98336.41;5123226;28;19975;-60
2022/07/10 04:58:45;;;;;;;;;;;;;;;19.92;100.00;98336.34;5124731;28;19920;-60
2022/07/10 05:01:12;;;;;;;;;;;;;;;20.04;100.00;98331.13;5104844;28;19947;-60
2022/07/10 05:03:39;;;;;;;;;;;;;;;20.18;100.00;98339.13;5121075;28;19991;-61
2022/07/10 05:06:06;;;;;;;;;;;;;;;20.18;100.00;98326.38;5121914;28;19920;-61
2022/07/10 05:08:32;;;;;;;;;;;;;;;19.64;100.00;98324.09;5124639;28;19969;-61
2022/07/10 05:10:58;;;;;;;;;;;;;;;19.11;100.00;98330.28;5124608;28;19962;-61
2022/07/10 05:13:25;;;;;;;;;;;;;;;18.92;100.00;98332.38;5112609;28;19931;-61
2022/07/10 05:15:51;;;;;;;;;;;;;;;18.51;100.00;98327.09;5120873;28;19946;-60
2022/07/10 05:18:17;;;;;;;;;;;;;;;18.66;100.00;98320.56;5123326;28;19930;-60
2022/07/10 05:20:47;;;;;;;;;;;;;;;18.73;100.00;98332.53;5124209;28;19920;-61
2022/07/10 05:23:14;;;;;;;;;;;;;;;18.60;100.00;98336.06;5122456;28;19950;-61
2022/07/10 05:25:40;;;;;;;;;;;;;;;17.95;100.00;98334.75;5120623;28;19959;-59
2022/07/10 05:28:07;;;;;;;;;;;;;;;18.09;100.00;98346.34;5121872;28;19924;-61
2022/07/10 05:30:33;;;;;;;;;;;;;;;18.27;100.00;98348.94;5124356;28;19934;-59
2022/07/10 05:33:00;;;;;;;;;;;;;;;18.69;100.00;98345.06;5124213;28;19970;-60
2022/07/10 05:35:26;;;;;;;;;;;;;;;18.74;100.00;98346.88;5120956;28;19931;-59
2022/07/10 05:37:54;;;;;;;;;;;;;;;18.74;100.00;98353.09;5120762;28;19978;-60
2022/07/10 05:40:20;;;;;;;;;;;;;;;18.63;100.00;98353.63;5123327;28;19965;-61
2022/07/10 05:42:47;;;;;;;;;;;;;;;19.22;100.00;98366.03;5130803;27;19920;-60
2022/07/10 05:45:13;;;;;;;;;;;;;;;18.78;100.00;98359.47;5122111;28;20023;-60
2022/07/10 05:47:40;;;;;;;;;;;;;;;18.84;100.00;98354.78;5120280;28;19924;-60
2022/07/10 05:50:06;;;;;;;;;;;;;;;18.87;100.00;98362.28;5121160;28;19920;-61
2022/07/10 05:52:33;;;;;;;;;;;;;;;18.79;100.00;98373.81;5123741;28;20003;-60
2022/07/10 05:55:00;;;;;;;;;;;;;;;18.57;100.00;98379.97;5123652;28;19946;-60
2022/07/10 05:57:27;;;;;;;;;;;;;;;18.43;100.00;98378.34;5111676;28;19987;-60
2022/07/10 05:59:53;;;;;;;;;;;;;;;18.14;100.00;98376.75;5111534;28;19963;-60
2022/07/10 06:02:19;;;;;;;;;;;;;;;18.17;100.00;98384.28;5111599;28;19924;-60
2022/07/10 06:04:46;;;;;;;;;;;;;;;18.74;100.00;98387.47;5111487;28;19920;-60
2022/07/10 06:07:12;;;;;;;;;;;;;;;18.84;100.00;98379.94;5111167;28;20592;-60
2022/07/10 06:09:38;;;;;;;;;;;;;;;18.75;100.00;98378.25;5111421;28;19959;-60
2022/07/10 06:12:06;;;;;;;;;;;;;;;18.61;100.00;98375.56;5111189;28;19935;-60
2022/07/10 06:14:33;;;;;;;;;;;;;;;19.01;100.00;98376.56;5115916;28;19928;-60
2022/07/10 06:16:59;;;;;;;;;;;;;;;18.63;100.00;98376.03;5123217;28;19999;-60
2022/07/10 06:19:25;;;;;;;;;;;;;;;18.59;100.00;98376.97;5111172;28;20147;-60
2022/07/10 06:22:30;;;;;;;;;;;;;;;18.41;100.00;98389.50;5111041;28;19927;-59
2022/07/10 06:24:39;;;;;;;;;;;;;;;18.17;100.00;98381.56;5110813;28;19991;-61
2022/07/10 06:27:07;;;;;;;;;;;;;;;18.53;100.00;98375.47;5110956;28;19924;-60
2022/07/10 06:29:33;;;;;;;;;;;;;;;18.72;100.00;98378.84;5111021;28;19943;-61
2022/07/10 06:31:59;;;;;;;;;;;;;;;18.26;100.00;98384.38;5111062;28;19995;-61
2022/07/10 06:34:26;;;;;;;;;;;;;;;18.10;100.00;98380.38;5119447;28;19921;-62
2022/07/10 06:36:52;;;;;;;;;;;;;;;18.93;100.00;98377.28;5119421;28;19924;-60
2022/07/10 06:39:18;;;;;;;;;;;;;;;19.23;100.00;98379.28;5122064;28;19931;-60
2022/07/10 06:41:45;;;;;;;;;;;;;;;19.00;100.00;98372.22;5123853;28;19966;-61
2022/07/10 06:44:12;;;;;;;;;;;;;;;18.85;100.00;98381.50;5124810;27;19978;-61
2022/07/10 06:46:39;;;;;;;;;;;;;;;19.56;100.00;98376.34;5122737;28;19958;-59
2022/07/10 06:49:04;;;;;;;;;;;;;;;18.97;100.00;98380.19;5122171;28;20408;-60
2022/07/10 06:51:31;;;;;;;;;;;;;;;18.39;100.00;98388.97;5119301;28;19924;-60
2022/07/10 06:53:58;;;;;;;;;;;;;;;18.04;100.00;98393.19;5119272;28;19925;-61
2022/07/10 06:56:24;;;;;;;;;;;;;;;18.74;100.00;98388.25;5122740;28;19923;-61
2022/07/10 06:58:50;;;;;;;;;;;;;;;19.34;100.00;98390.69;5122577;28;19924;-61
2022/07/10 07:01:18;;;;;;;;;;;;;;;19.52;100.00;98402.44;5120241;28;19920;-61
2022/07/10 07:03:45;;;;;;;;;;;;;;;19.40;100.00;98397.59;5118946;28;19924;-60
2022/07/10 07:06:11;;;;;;;;;;;;;;;19.26;100.00;98392.19;5120263;28;19980;-61
2022/07/10 07:08:37;;;;;;;;;;;;;;;19.25;100.00;98404.13;5122223;28;19931;-60
2022/07/10 07:11:04;;;;;;;;;;;;;;;19.44;100.00;98387.72;5121871;28;19923;-60
2022/07/10 07:13:30;;;;;;;;;;;;;;;19.06;100.00;98397.31;5110595;28;19955;-59
2022/07/10 07:15:59;;;;;;;;;;;;;;;18.91;100.00;98401.13;5118815;28;19935;-60
2022/07/10 07:18:32;;;;;;;;;;;;;;;19.39;100.00;98404.94;5118292;28;19920;-60
2022/07/10 07:23:42;;;;;;;;;;;;;;;18.62;100.00;98400.72;5118585;28;19988;-60
2022/07/10 07:26:09;;;;;;;;;;;;;;;18.82;100.00;98402.97;5119879;28;19932;-60
2022/07/10 07:28:35;;;;;;;;;;;;;;;18.38;100.00;98397.41;5122330;28;19993;-60
2022/07/10 07:31:01;;;;;;;;;;;;;;;18.26;100.00;98400.59;5121945;28;19924;-61
2022/07/10 07:33:29;;;;;;;;;;;;;;;18.45;100.00;98403.19;5118691;28;19931;-61
2022/07/10 07:35:55;;;;;;;;;;;;;;;19.41;100.00;98396.47;5118668;28;19928;-60
2022/07/10 07:38:22;;;;;;;;;;;;;;;19.16;100.00;98397.03;5121753;28;19923;-60
2022/07/10 07:40:48;;;;;;;;;;;;;;;19.03;100.00;98404.13;5122077;28;19924;-60
2022/07/10 07:43:15;;;;;;;;;;;;;;;18.96;100.00;98403.75;5127040;27;19924;-60
2022/07/10 07:45:41;;;;;;;;;;;;;;;18.95;100.00;98402.13;5118590;28;19946;-60
2022/07/10 07:48:08;;;;;;;;;;;;;;;18.83;100.00;98420.81;5119607;28;20495;-60
2022/07/10 07:50:37;;;;;;;;;;;;;;;19.22;100.00;98409.34;5121926;28;19953;-60
2022/07/10 07:53:05;;;;;;;;;;;;;;;19.41;100.00;98401.88;5121570;28;19923;-59
2022/07/10 07:55:32;;;;;;;;;;;;;;;19.01;99.43;98411.75;5118515;28;19931;-61
2022/07/10 07:57:59;;;;;;;;;;;;;;;19.40;100.00;98408.44;5118485;28;19963;-60
2022/07/10 08:00:26;;;;;;;;;;;;;;;19.27;99.21;98415.47;5118514;28;20595;-60
2022/07/10 08:02:54;;;;;;;;;;;;;;;19.84;97.88;98407.56;5118435;28;20697;-59
2022/07/10 08:05:21;;;;;;;;;;;;;;;20.59;90.79;98402.00;5121253;28;19928;-60
2022/07/10 08:07:50;;;;;;;;;;;;;;;20.65;88.57;98408.88;5122007;28;19924;-61
2022/07/10 08:10:18;;;;;;;;;;;;;;;20.23;87.94;98404.91;5119888;28;20015;-59
2022/07/10 08:12:45;;;;;;;;;;;;;;;20.00;89.87;98406.06;5115247;28;19931;-60
2022/07/10 08:15:12;;;;;;;;;;;;;;;20.23;84.76;98395.97;5118788;28;19971;-61
2022/07/10 08:17:39;;;;;;;;;;;;;;;20.39;78.07;98397.94;5118457;28;19924;-60
2022/07/10 08:20:07;;;;;;;;;;;;;;;19.89;77.96;98399.31;5119194;28;19928;-61
2022/07/10 08:22:33;;;;;;;;;;;;;;;19.69;75.91;98397.13;5121943;28;19963;-60
2022/07/10 08:25:01;;;;;;;;;;;;;;;19.88;76.96;98397.72;5121879;28;19970;-60
2022/07/10 08:27:27;;;;;;;;;;;;;;;20.29;76.42;98394.75;5109872;28;19966;-61
2022/07/10 08:29:54;;;;;;;;;;;;;;;20.01;69.81;98401.44;5110143;28;19932;-60
2022/07/10 08:32:21;;;;;;;;;;;;;;;19.78;71.84;98397.97;5113092;28;19962;-60
2022/07/10 08:34:48;;;;;;;;;;;;;;;19.67;71.42;98407.50;5113500;28;19977;-59
2022/07/10 08:37:14;;;;;;;;;;;;;;;19.71;73.06;98401.13;5113422;28;19928;-60
2022/07/10 08:39:41;;;;;;;;;;;;;;;19.95;72.01;98395.38;5113355;28;19975;-61
2022/07/10 08:42:11;;;;;;;;;;;;;;;20.62;71.00;98392.41;5121371;27;19948;-61
2022/07/10 08:44:38;;;;;;;;;;;;;;;20.66;69.75;98387.97;5125428;28;19920;-60
2022/07/10 08:47:04;;;;;;;;;;;;;;;20.71;68.42;98393.22;5125013;28;20529;-61
2022/07/10 08:49:32;;;;;;;;;;;;;;;20.97;68.34;98384.03;5121968;28;19924;-61
2022/07/10 08:51:59;;;;;;;;;;;;;;;20.81;65.95;98387.50;5121421;28;19946;-60
2022/07/10 08:54:28;;;;;;;;;;;;;;;20.42;63.13;98391.88;5124556;28;19919;-62
2022/07/10 08:56:54;;;;;;;;;;;;;;;19.90;64.36;98384.66;5124333;28;19928;-61
2022/07/10 08:59:23;;;;;;;;;;;;;;;20.13;66.62;98391.63;5121256;28;19963;-60
2022/07/10 09:01:49;;;;;;;;;;;;;;;20.36;66.17;98392.38;5121307;28;19987;-60
2022/07/10 09:04:17;;;;;;;;;;;;;;;20.73;67.81;98385.59;5123422;28;19927;-59
2022/07/10 09:06:44;;;;;;;;;;;;;;;20.80;65.56;98391.34;5124744;28;19924;-60
2022/07/10 09:09:11;;;;;;;;;;;;;;;20.36;62.79;98381.53;5123389;28;19955;-60
2022/07/10 09:11:40;;;;;;;;;;;;;;;19.94;64.16;98386.44;5121075;28;20019;-60
2022/07/10 09:14:08;;;;;;;;;;;;;;;20.03;66.21;98397.31;5113420;28;19920;-61
2022/07/10 09:16:37;;;;;;;;;;;;;;;19.84;63.39;98389.41;5124543;28;19991;-64
2022/07/10 09:19:17;;;;;;;;;;;;;;;19.74;64.14;98391.59;5124011;28;19945;-60
2022/07/10 09:21:44;;;;;;;;;;;;;;;20.09;62.64;98395.25;5120800;28;19924;-61
2022/07/10 09:24:10;;;;;;;;;;;;;;;20.00;62.35;98387.09;5122228;28;19988;-60
2022/07/10 09:26:37;;;;;;;;;;;;;;;20.05;64.21;98376.13;5124362;28;19920;-61
2022/07/10 09:29:08;;;;;;;;;;;;;;;20.32;63.41;98384.06;5123863;28;19931;-63
2022/07/10 09:31:50;;;;;;;;;;;;;;;20.28;61.01;98401.25;5120843;28;19928;-61
2022/07/10 09:34:18;;;;;;;;;;;;;;;20.43;62.83;98396.22;5122922;28;19920;-60
2022/07/10 09:36:44;;;;;;;;;;;;;;;20.95;62.60;98386.22;5124257;28;19935;-60
2022/07/10 09:39:10;;;;;;;;;;;;;;;20.61;58.68;98401.69;5122817;28;19958;-61
2022/07/10 09:41:38;;;;;;;;;;;;;;;20.22;58.37;98397.88;5120673;27;19946;-60
2022/07/10 09:44:07;;;;;;;;;;;;;;;20.03;59.04;98386.47;5127029;27;19924;-61
2022/07/10 09:46:34;;;;;;;;;;;;;;;19.79;58.59;98386.84;5123984;28;19990;-60
2022/07/10 09:49:05;;;;;;;;;;;;;;;19.87;59.54;98390.69;5123837;28;19930;-61
2022/07/10 09:51:34;;;;;;;;;;;;;;;20.19;58.73;98387.66;5120468;28;19935;-60
2022/07/10 09:54:04;;;;;;;;;;;;;;;20.40;58.97;98393.31;5120534;28;19931;-60
2022/07/10 09:56:33;;;;;;;;;;;;;;;20.26;57.50;98392.66;5120492;28;19952;-60
2022/07/10 09:59:01;;;;;;;;;;;;;;;20.06;58.16;98390.47;5120572;28;19924;-61
2022/07/10 10:01:28;;;;;;;;;;;;;;;20.28;58.98;98402.06;5120418;28;19924;-62
2022/07/10 10:03:54;;;;;;;;;;;;;;;20.39;61.53;98387.09;5120188;28;19966;-60
2022/07/10 10:06:22;;;;;;;;;;;;;;;23.06;68.91;98390.84;5122962;28;19991;-60
2022/07/10 10:08:52;;;;;;;;;;;;;;;23.61;65.28;98389.75;5123586;28;19967;-60
2022/07/10 10:11:20;;;;;;;;;;;;;;;24.04;63.41;98384.63;5121099;28;20050;-59
2022/07/10 10:13:47;;;;;;;;;;;;;;;24.12;60.44;98394.66;5111438;28;19924;-60
2022/07/10 10:16:13;;;;;;;;;;;;;;;24.21;59.03;98397.28;5121985;28;19924;-60
2022/07/10 10:20:36;;;;;;;;;;;;;;;24.21;58.01;98396.47;5123659;28;19924;-60
2022/07/10 10:21:27;;;;;;;;;;;;;;;22.97;55.30;98398.28;5119990;28;19931;-61
2022/07/10 10:23:55;;;;;;;;;;;;;;;22.41;55.01;98390.59;5119966;28;19924;-60
2022/07/10 10:26:22;;;;;;;;;;;;;;;21.95;54.63;98415.91;5123138;28;19928;-61
2022/07/10 10:28:49;;;;;;;;;;;;;;;21.33;55.27;98413.59;5123582;28;19934;-59
2022/07/10 10:31:16;;;;;;;;;;;;;;;20.94;55.80;98406.38;5121150;28;19973;-59
2022/07/10 10:33:46;;;;;;;;;;;;;;;20.25;57.04;98413.50;5120210;28;19924;-60
2022/07/10 10:36:14;;;;;;;;;;;;;;;20.19;57.61;98412.06;5121700;28;19931;-60
2022/07/10 10:39:07;;;;;;;;;;;;;;;20.00;58.11;98414.19;5123438;28;19962;-60
2022/07/10 10:41:39;;;;;;;;;;;;;;;20.26;58.20;98415.16;5101812;28;19931;-61
2022/07/10 10:44:20;;;;;;;;;;;;;;;20.32;58.55;98413.91;5120168;28;19931;-61
2022/07/10 10:46:56;;;;;;;;;;;;;;;20.15;58.93;98408.38;5122991;28;20688;-60
2022/07/10 10:49:24;;;;;;;;;;;;;;;20.12;59.38;98413.59;5119728;28;19928;-59
2022/07/10 10:51:57;;;;;;;;;;;;;;;20.07;59.70;98417.28;5119405;28;19924;-60
2022/07/10 10:54:24;;;;;;;;;;;;;;;19.87;60.11;98417.78;5121688;28;19924;-61
2022/07/10 10:57:05;;;;;;;;;;;;;;;19.66;60.88;98419.44;5122768;28;19923;-60
2022/07/10 10:59:46;;;;;;;;;;;;;;;19.99;61.27;98411.81;5110783;28;19924;-60
2022/07/10 11:02:32;;;;;;;;;;;;;;;20.21;60.32;98417.97;5110252;28;19924;-60
2022/07/10 11:05:14;;;;;;;;;;;;;;;20.51;60.57;98424.50;5103945;27;19924;-61
2022/07/10 11:07:51;;;;;;;;;;;;;;;20.62;58.39;98417.66;5118841;28;19967;-60
2022/07/10 11:10:27;;;;;;;;;;;;;;;20.66;57.85;98417.81;5121075;28;19920;-59
2022/07/10 11:12:58;;;;;;;;;;;;;;;20.89;56.61;98416.56;5114769;28;19924;-60
2022/07/10 11:15:26;;;;;;;;;;;;;;;20.85;55.50;98411.00;5118850;28;19966;-59
2022/07/10 11:17:53;;;;;;;;;;;;;;;22.95;64.14;98403.28;5118531;28;19931;-59
2022/07/10 11:20:19;;;;;;;;;;;;;;;23.92;60.42;98395.50;5121154;28;19931;-59
2022/07/10 11:22:50;;;;;;;;;;;;;;;24.07;58.49;98396.78;5121977;28;19987;-61
2022/07/10 11:25:35;;;;;;;;;;;;;;;22.64;53.70;98402.00;5120242;28;19924;-61
2022/07/10 11:28:09;;;;;;;;;;;;;;;22.01;53.50;98390.94;5118822;28;19984;-60
2022/07/10 11:30:47;;;;;;;;;;;;;;;21.93;53.17;98401.84;5122392;28;19923;-60
2022/07/10 11:33:13;;;;;;;;;;;;;;;21.67;52.29;98390.19;5120521;28;19959;-60
2022/07/10 11:35:40;;;;;;;;;;;;;;;21.67;54.27;98390.19;5118538;28;19924;-60
2022/07/10 11:38:07;;;;;;;;;;;;;;;21.75;53.58;98379.31;5119579;28;19920;-61
2022/07/10 11:40:36;;;;;;;;;;;;;;;21.76;53.51;98385.53;5122263;28;19971;-60
2022/07/10 11:43:05;;;;;;;;;;;;;;;21.99;51.35;98378.78;5129309;28;20001;-61
2022/07/10 11:45:33;;;;;;;;;;;;;;;21.91;50.83;98385.84;5114726;28;20672;-61
2022/07/10 11:48:00;;;;;;;;;;;;;;;21.74;49.77;98376.91;5122321;28;20411;-61
2022/07/10 11:50:27;;;;;;;;;;;;;;;21.96;50.81;98380.25;5110283;28;19980;-60
2022/07/10 11:52:54;;;;;;;;;;;;;;;22.11;51.63;98384.34;5110114;28;20702;-61
2022/07/10 11:55:22;;;;;;;;;;;;;;;22.07;50.46;98383.38;5110023;28;19931;-60
2022/07/10 11:57:49;;;;;;;;;;;;;;;21.91;49.68;98387.78;5109866;28;19924;-61
2022/07/10 12:00:23;;;;;;;;;;;;;;;21.72;51.53;98395.50;5109983;28;19925;-60
2022/07/10 12:02:49;;;;;;;;;;;;;;;21.86;51.74;98390.63;5109625;28;19928;-61
2022/07/10 12:05:31;;;;;;;;;;;;;;;22.00;51.76;98374.97;5111218;28;19947;-61
2022/07/10 12:07:59;;;;;;;;;;;;;;;22.07;51.75;98383.38;5113948;28;19934;-61
2022/07/10 12:10:26;;;;;;;;;;;;;;;22.14;51.27;98378.25;5113894;28;19924;-61
2022/07/10 12:12:53;;;;;;;;;;;;;;;22.00;48.96;98386.59;5113560;28;19991;-61
2022/07/10 12:15:34;;;;;;;;;;;;;;;21.96;49.98;98388.41;5122238;28;19930;-60
2022/07/10 12:18:00;;;;;;;;;;;;;;;22.07;50.70;98383.38;5119380;28;19963;-60
2022/07/10 12:20:27;;;;;;;;;;;;;;;22.10;50.26;98392.84;5113701;28;19965;-61
2022/07/10 12:22:54;;;;;;;;;;;;;;;22.24;49.50;98396.13;5113559;28;19924;-60
2022/07/10 12:25:21;;;;;;;;;;;;;;;21.88;48.96;98388.41;5113439;28;20512;-61
2022/07/10 12:27:48;;;;;;;;;;;;;;;21.85;49.48;98392.56;5113469;28;19959;-60
2022/07/10 12:30:14;;;;;;;;;;;;;;;21.95;49.76;98400.41;5113361;28;19924;-61
2022/07/10 12:32:41;;;;;;;;;;;;;;;21.67;49.61;98396.44;5113042;28;19931;-61
2022/07/10 12:35:14;;;;;;;;;;;;;;;21.37;49.06;98395.53;5113227;28;20027;-61
2022/07/10 12:37:47;;;;;;;;;;;;;;;21.40;49.02;98396.81;5113149;28;19924;-60
2022/07/10 12:40:29;;;;;;;;;;;;;;;21.44;50.43;98400.50;5113188;28;19935;-60
2022/07/10 12:43:03;;;;;;;;;;;;;;;21.28;49.26;98397.47;5112857;28;19967;-59
2022/07/10 12:45:29;;;;;;;;;;;;;;;21.59;50.48;98391.03;5112871;28;19924;-60
2022/07/10 12:47:56;;;;;;;;;;;;;;;21.87;50.09;98389.53;5112765;28;19932;-61